Detailed Flight Report of Ismail DUMAN ;
Number CXD029 
Departure Aerodrome LTBS 
Arrival Aerodrome LTFJ

Map generated by the Great Circle Mapper - copyright © Karl L. Swartz.

Pilot In Command CXD029 : Ismail Duman
Aircraft B738 / TC-KRD
Date Of Flight 2019-11-10
Departure Time 10:35 UTC
Arrival Time 12:06 UTC
Block Time 01:31
Distance 341 Nm.
Used Fuel 6,940 Lbs.
   
Detailed Flight Log [2019/11/10 10:26:00]
Flight IATA:C001
Pilot Number:029
Company ICAO:CXD
Aircraft Type:B738
Aircraft Registration:TC-KRD
Departing Airport: LTBS
Destination Airport: LTFJ
Alternate Airport:LTBU
Online: VATSIM
Route:RIVBU UN136 UPKUL UL610 ETAMP
Flight Level:FL330
No pause
10:26 Zero fuel Weight: 133497 Lbs, Fuel Weight: 12757 Lbs
10:26 VATSIM:LTBS 082250Z 06006KT CAVOK 13/12 Q1018 NOSIG
10:26 VATSIM:LTFJ 082250Z 00000KT CAVOK 16/09 Q1016 NOSIG
10:41 Slew ON
10:42 Slew OFF
10:44 Parking Brakes off
11:09 VR= 154 Knots
11:09 V2= 157 Knots
11:09 Take-off
11:09 Take off Weight: 145327 Lbs
11:09 Wind: 040º @ 006 Knots Heading: 015º
11:09 POS N36º 43´ 05´´ E028º 47´ 39´´
11:09 N11 86 N12 86
11:09 Flaps:5º at 157 Knots
11:10 Gear Up: 149 Knots
11:11 Flaps:2º at 181 Knots
11:11 Flaps:1º at 191 Knots
11:12 Flaps:Up at 207 Knots
11:24 Wind:211º@027 Knots Heading: 034
º Ground Speed: 484 Knots Altitude 28438 ft
11:27 TOC
11:27 Fuel Weight: 8204 Lb
11:33 TOD
11:33 Fuel Weight: 7576 Lb
11:39 Wind:307º@033 Knots Heading: 333º Ground Speed: 391 Knots Altitude 23510 ft
11:54 Wind:216º@022 Knots Heading: 263º Ground Speed: 248 Knots Altitude 8001 ft
12:06 Flaps:1º at 208 Knots
12:06 Flaps:2º at 202 Knots
12:06 Flaps:5º at 201 Knots
12:06 Gear Down: 201 Knots
12:07 Flaps:10º at 195 Knots
12:08 Flaps:15º at 179 Knots
12:08 Flaps:25º at 168 Knots
12:08 Flaps:30º at 158 Knots
12:08 Flaps:Full at 152 Knots
12:09 Wind:047º@001 Knots Heading: 063º Ground Speed: 148 Knots Altitude 334 ft
12:09 TouchDown:Rate -256 ft/min Speed: 132 Knots
12:09 VATSIM:LTFJ 090020Z VRB01KT CAVOK 15/09 Q1017 NOSIG
12:09 Land
12:09 Wind:030º@001 Knots
12:09 Heading: 064º
12:09 Flight Duration: 01:00
12:09 Landing Weight: 139492 Lbs
12:09 POS N40º 54´
04´´ E029º 18´ 59´´
12:15 Parking brakes on
12:15 Block to Block Duration: 01:31
12:15 Final Fuel: 5817 Lbls
12:15 Spent Fuel: 6940 Lbls
12:15 Flight Length: 341 NM
12:15 TOD Land Length: 180 NM

Text Link of Flight Log http://www.candanair.net/acars/logs/CXD02920191110102600.txt
   

[ Back ]